sensor_id;sensor_type;location;lat;lon;timestamp;P1;durP1;ratioP1;P2;durP2;ratioP2
36191;SDS011;22233;42.708;23.360;2023-03-20T00:01:12;38.38;;;22.73;;
36191;SDS011;22233;42.708;23.360;2023-03-20T00:03:46;39.22;;;21.90;;
36191;SDS011;22233;42.708;23.360;2023-03-20T00:06:22;39.45;;;23.10;;
36191;SDS011;22233;42.708;23.360;2023-03-20T00:08:50;38.60;;;21.80;;
36191;SDS011;22233;42.708;23.360;2023-03-20T00:16:26;39.97;;;22.23;;
36191;SDS011;22233;42.708;23.360;2023-03-20T00:18:55;40.30;;;22.23;;
36191;SDS011;22233;42.708;23.360;2023-03-20T00:21:21;42.10;;;23.52;;
36191;SDS011;22233;42.708;23.360;2023-03-20T00:23:47;35.47;;;21.55;;
36191;SDS011;22233;42.708;23.360;2023-03-20T00:26:14;36.53;;;21.63;;
36191;SDS011;22233;42.708;23.360;2023-03-20T00:28:45;40.28;;;21.38;;
36191;SDS011;22233;42.708;23.360;2023-03-20T00:31:14;31.88;;;18.95;;
36191;SDS011;22233;42.708;23.360;2023-03-20T00:33:45;32.80;;;18.88;;
36191;SDS011;22233;42.708;23.360;2023-03-20T00:36:10;31.15;;;19.10;;
36191;SDS011;22233;42.708;23.360;2023-03-20T00:38:36;30.98;;;17.35;;
36191;SDS011;22233;42.708;23.360;2023-03-20T00:41:01;29.33;;;15.85;;
36191;SDS011;22233;42.708;23.360;2023-03-20T00:43:27;25.15;;;16.80;;
36191;SDS011;22233;42.708;23.360;2023-03-20T00:45:53;30.80;;;16.00;;
36191;SDS011;22233;42.708;23.360;2023-03-20T00:48:18;29.90;;;16.63;;
36191;SDS011;22233;42.708;23.360;2023-03-20T00:50:44;26.58;;;16.13;;
36191;SDS011;22233;42.708;23.360;2023-03-20T00:53:10;24.88;;;15.10;;
36191;SDS011;22233;42.708;23.360;2023-03-20T00:55:36;27.23;;;16.40;;
36191;SDS011;22233;42.708;23.360;2023-03-20T00:58:03;28.80;;;16.83;;
36191;SDS011;22233;42.708;23.360;2023-03-20T01:00:33;28.13;;;14.88;;
36191;SDS011;22233;42.708;23.360;2023-03-20T01:05:36;31.10;;;16.25;;
36191;SDS011;22233;42.708;23.360;2023-03-20T01:08:04;24.67;;;15.55;;
36191;SDS011;22233;42.708;23.360;2023-03-20T01:10:34;22.75;;;14.48;;
36191;SDS011;22233;42.708;23.360;2023-03-20T01:13:00;25.88;;;14.98;;
36191;SDS011;22233;42.708;23.360;2023-03-20T01:15:27;23.80;;;15.05;;
36191;SDS011;22233;42.708;23.360;2023-03-20T01:17:56;23.90;;;15.30;;
36191;SDS011;22233;42.708;23.360;2023-03-20T01:20:23;25.40;;;14.80;;
36191;SDS011;22233;42.708;23.360;2023-03-20T01:22:52;24.80;;;14.25;;
36191;SDS011;22233;42.708;23.360;2023-03-20T01:25:18;28.98;;;14.60;;
36191;SDS011;22233;42.708;23.360;2023-03-20T01:27:49;24.50;;;15.45;;
36191;SDS011;22233;42.708;23.360;2023-03-20T01:30:29;22.33;;;14.45;;
36191;SDS011;22233;42.708;23.360;2023-03-20T01:32:56;25.00;;;14.35;;
36191;SDS011;22233;42.708;23.360;2023-03-20T01:35:23;26.27;;;14.90;;
36191;SDS011;22233;42.708;23.360;2023-03-20T01:37:51;26.65;;;14.68;;
36191;SDS011;22233;42.708;23.360;2023-03-20T01:43:01;26.50;;;15.27;;
36191;SDS011;22233;42.708;23.360;2023-03-20T01:45:31;25.05;;;14.80;;
36191;SDS011;22233;42.708;23.360;2023-03-20T01:48:01;24.05;;;14.48;;
36191;SDS011;22233;42.708;23.360;2023-03-20T01:50:37;23.40;;;14.20;;
36191;SDS011;22233;42.708;23.360;2023-03-20T01:55:52;21.45;;;13.85;;
36191;SDS011;22233;42.708;23.360;2023-03-20T01:58:21;25.00;;;14.43;;
36191;SDS011;22233;42.708;23.360;2023-03-20T02:01:01;24.60;;;14.63;;
36191;SDS011;22233;42.708;23.360;2023-03-20T02:03:28;23.88;;;14.45;;
36191;SDS011;22233;42.708;23.360;2023-03-20T02:05:54;28.58;;;15.90;;
36191;SDS011;22233;42.708;23.360;2023-03-20T02:08:30;30.30;;;14.65;;
36191;SDS011;22233;42.708;23.360;2023-03-20T02:11:00;24.40;;;14.15;;
36191;SDS011;22233;42.708;23.360;2023-03-20T02:13:28;25.80;;;14.73;;
36191;SDS011;22233;42.708;23.360;2023-03-20T02:16:06;23.67;;;14.30;;
36191;SDS011;22233;42.708;23.360;2023-03-20T02:18:36;26.73;;;14.40;;
36191;SDS011;22233;42.708;23.360;2023-03-20T02:32:02;26.08;;;14.65;;
36191;SDS011;22233;42.708;23.360;2023-03-20T02:42:19;20.80;;;11.35;;
36191;SDS011;22233;42.708;23.360;2023-03-20T02:45:12;25.30;;;14.02;;
36191;SDS011;22233;42.708;23.360;2023-03-20T02:48:01;23.58;;;15.32;;
36191;SDS011;22233;42.708;23.360;2023-03-20T02:50:46;22.95;;;14.40;;
36191;SDS011;22233;42.708;23.360;2023-03-20T02:53:22;24.67;;;15.10;;
36191;SDS011;22233;42.708;23.360;2023-03-20T02:56:01;28.95;;;14.20;;
36191;SDS011;22233;42.708;23.360;2023-03-20T02:58:41;22.13;;;12.82;;
36191;SDS011;22233;42.708;23.360;2023-03-20T03:01:29;25.98;;;14.23;;
36191;SDS011;22233;42.708;23.360;2023-03-20T03:04:02;23.23;;;12.23;;
36191;SDS011;22233;42.708;23.360;2023-03-20T03:06:32;20.10;;;12.75;;
36191;SDS011;22233;42.708;23.360;2023-03-20T03:09:02;25.30;;;13.50;;
36191;SDS011;22233;42.708;23.360;2023-03-20T03:11:37;23.90;;;13.07;;
36191;SDS011;22233;42.708;23.360;2023-03-20T03:14:09;21.77;;;12.13;;
36191;SDS011;22233;42.708;23.360;2023-03-20T03:16:41;20.30;;;12.55;;
36191;SDS011;22233;42.708;23.360;2023-03-20T03:19:12;19.42;;;12.90;;
36191;SDS011;22233;42.708;23.360;2023-03-20T03:21:42;16.77;;;11.05;;
36191;SDS011;22233;42.708;23.360;2023-03-20T03:26:54;20.48;;;12.18;;
36191;SDS011;22233;42.708;23.360;2023-03-20T03:29:23;21.70;;;13.27;;
36191;SDS011;22233;42.708;23.360;2023-03-20T03:31:52;18.10;;;13.07;;
36191;SDS011;22233;42.708;23.360;2023-03-20T03:34:18;21.02;;;12.80;;
36191;SDS011;22233;42.708;23.360;2023-03-20T03:36:48;25.38;;;13.70;;
36191;SDS011;22233;42.708;23.360;2023-03-20T03:42:06;23.83;;;14.25;;
36191;SDS011;22233;42.708;23.360;2023-03-20T03:44:52;22.35;;;14.50;;
36191;SDS011;22233;42.708;23.360;2023-03-20T03:47:33;26.88;;;14.77;;
36191;SDS011;22233;42.708;23.360;2023-03-20T03:50:05;23.88;;;13.73;;
36191;SDS011;22233;42.708;23.360;2023-03-20T03:52:35;22.38;;;13.45;;
36191;SDS011;22233;42.708;23.360;2023-03-20T03:55:05;25.80;;;13.50;;
36191;SDS011;22233;42.708;23.360;2023-03-20T03:57:44;22.05;;;12.82;;
36191;SDS011;22233;42.708;23.360;2023-03-20T04:00:16;20.83;;;12.68;;
36191;SDS011;22233;42.708;23.360;2023-03-20T04:02:46;27.42;;;14.18;;
36191;SDS011;22233;42.708;23.360;2023-03-20T04:05:14;19.23;;;12.82;;
36191;SDS011;22233;42.708;23.360;2023-03-20T04:07:44;18.63;;;11.60;;
36191;SDS011;22233;42.708;23.360;2023-03-20T04:10:10;20.70;;;11.95;;
36191;SDS011;22233;42.708;23.360;2023-03-20T04:12:38;19.60;;;11.02;;
36191;SDS011;22233;42.708;23.360;2023-03-20T04:15:08;17.65;;;11.35;;
36191;SDS011;22233;42.708;23.360;2023-03-20T04:17:35;13.52;;;10.10;;
36191;SDS011;22233;42.708;23.360;2023-03-20T04:20:00;15.70;;;10.57;;
36191;SDS011;22233;42.708;23.360;2023-03-20T04:22:26;21.30;;;10.68;;
36191;SDS011;22233;42.708;23.360;2023-03-20T04:24:51;20.25;;;10.98;;
36191;SDS011;22233;42.708;23.360;2023-03-20T04:27:17;18.15;;;10.38;;
36191;SDS011;22233;42.708;23.360;2023-03-20T04:29:42;14.23;;;9.25;;
36191;SDS011;22233;42.708;23.360;2023-03-20T04:32:08;17.00;;;9.90;;
36191;SDS011;22233;42.708;23.360;2023-03-20T04:34:34;16.38;;;10.60;;
36191;SDS011;22233;42.708;23.360;2023-03-20T04:37:00;17.73;;;10.90;;
36191;SDS011;22233;42.708;23.360;2023-03-20T04:39:25;22.00;;;12.10;;
36191;SDS011;22233;42.708;23.360;2023-03-20T04:41:51;17.70;;;10.98;;
36191;SDS011;22233;42.708;23.360;2023-03-20T04:44:17;22.63;;;12.48;;
36191;SDS011;22233;42.708;23.360;2023-03-20T04:46:42;21.88;;;11.48;;
36191;SDS011;22233;42.708;23.360;2023-03-20T04:49:07;26.67;;;15.27;;
36191;SDS011;22233;42.708;23.360;2023-03-20T04:51:33;29.45;;;16.42;;
36191;SDS011;22233;42.708;23.360;2023-03-20T04:53:58;29.10;;;17.48;;
36191;SDS011;22233;42.708;23.360;2023-03-20T04:56:24;24.10;;;14.60;;
36191;SDS011;22233;42.708;23.360;2023-03-20T04:58:49;21.10;;;14.02;;
36191;SDS011;22233;42.708;23.360;2023-03-20T05:01:15;28.90;;;15.35;;
36191;SDS011;22233;42.708;23.360;2023-03-20T05:03:40;27.13;;;15.18;;
36191;SDS011;22233;42.708;23.360;2023-03-20T05:06:06;22.13;;;14.00;;
36191;SDS011;22233;42.708;23.360;2023-03-20T05:08:31;33.85;;;15.57;;
36191;SDS011;22233;42.708;23.360;2023-03-20T05:10:57;22.00;;;14.80;;
36191;SDS011;22233;42.708;23.360;2023-03-20T05:13:22;30.23;;;14.65;;
36191;SDS011;22233;42.708;23.360;2023-03-20T05:15:48;26.00;;;14.05;;
36191;SDS011;22233;42.708;23.360;2023-03-20T05:18:13;25.05;;;14.48;;
36191;SDS011;22233;42.708;23.360;2023-03-20T05:20:39;27.70;;;15.23;;
36191;SDS011;22233;42.708;23.360;2023-03-20T05:23:04;21.63;;;13.27;;
36191;SDS011;22233;42.708;23.360;2023-03-20T05:25:30;19.38;;;11.88;;
36191;SDS011;22233;42.708;23.360;2023-03-20T05:27:55;18.05;;;10.50;;
36191;SDS011;22233;42.708;23.360;2023-03-20T05:30:21;19.40;;;11.15;;
36191;SDS011;22233;42.708;23.360;2023-03-20T05:32:50;23.65;;;12.75;;
36191;SDS011;22233;42.708;23.360;2023-03-20T05:35:16;22.23;;;11.43;;
36191;SDS011;22233;42.708;23.360;2023-03-20T05:37:42;21.48;;;11.85;;
36191;SDS011;22233;42.708;23.360;2023-03-20T05:40:12;21.15;;;12.43;;
36191;SDS011;22233;42.708;23.360;2023-03-20T05:42:39;16.23;;;9.77;;
36191;SDS011;22233;42.708;23.360;2023-03-20T05:45:05;22.20;;;12.55;;
36191;SDS011;22233;42.708;23.360;2023-03-20T05:47:31;18.45;;;11.13;;
36191;SDS011;22233;42.708;23.360;2023-03-20T05:49:56;22.90;;;12.10;;
36191;SDS011;22233;42.708;23.360;2023-03-20T05:52:22;18.92;;;11.07;;
36191;SDS011;22233;42.708;23.360;2023-03-20T05:54:47;19.70;;;12.60;;
36191;SDS011;22233;42.708;23.360;2023-03-20T05:57:13;17.60;;;11.32;;
36191;SDS011;22233;42.708;23.360;2023-03-20T05:59:39;20.58;;;14.15;;
36191;SDS011;22233;42.708;23.360;2023-03-20T06:02:05;21.30;;;13.48;;
36191;SDS011;22233;42.708;23.360;2023-03-20T06:04:30;18.52;;;10.63;;
36191;SDS011;22233;42.708;23.360;2023-03-20T06:06:56;22.75;;;11.57;;
36191;SDS011;22233;42.708;23.360;2023-03-20T06:09:21;27.40;;;11.55;;
36191;SDS011;22233;42.708;23.360;2023-03-20T06:11:47;18.65;;;9.88;;
36191;SDS011;22233;42.708;23.360;2023-03-20T06:14:12;19.17;;;11.27;;
36191;SDS011;22233;42.708;23.360;2023-03-20T06:16:38;17.23;;;11.70;;
36191;SDS011;22233;42.708;23.360;2023-03-20T06:19:04;16.92;;;11.30;;
36191;SDS011;22233;42.708;23.360;2023-03-20T06:21:29;21.45;;;11.20;;
36191;SDS011;22233;42.708;23.360;2023-03-20T06:23:55;16.10;;;10.90;;
36191;SDS011;22233;42.708;23.360;2023-03-20T06:26:22;19.05;;;10.77;;
36191;SDS011;22233;42.708;23.360;2023-03-20T06:28:47;28.10;;;12.63;;
36191;SDS011;22233;42.708;23.360;2023-03-20T06:31:13;20.00;;;11.50;;
36191;SDS011;22233;42.708;23.360;2023-03-20T06:33:38;15.93;;;11.10;;
36191;SDS011;22233;42.708;23.360;2023-03-20T06:36:04;17.83;;;10.73;;
36191;SDS011;22233;42.708;23.360;2023-03-20T06:38:30;16.85;;;10.48;;
36191;SDS011;22233;42.708;23.360;2023-03-20T06:40:56;21.20;;;10.02;;
36191;SDS011;22233;42.708;23.360;2023-03-20T06:43:21;16.02;;;10.52;;
36191;SDS011;22233;42.708;23.360;2023-03-20T06:45:46;17.70;;;10.95;;
36191;SDS011;22233;42.708;23.360;2023-03-20T06:48:12;17.65;;;9.88;;
36191;SDS011;22233;42.708;23.360;2023-03-20T06:50:37;19.50;;;10.35;;
36191;SDS011;22233;42.708;23.360;2023-03-20T06:53:03;18.45;;;10.52;;
36191;SDS011;22233;42.708;23.360;2023-03-20T06:55:28;16.73;;;10.52;;
36191;SDS011;22233;42.708;23.360;2023-03-20T06:57:54;16.65;;;10.55;;
36191;SDS011;22233;42.708;23.360;2023-03-20T07:00:20;20.17;;;11.57;;
36191;SDS011;22233;42.708;23.360;2023-03-20T07:02:46;18.08;;;11.55;;
36191;SDS011;22233;42.708;23.360;2023-03-20T07:05:13;19.90;;;9.90;;
36191;SDS011;22233;42.708;23.360;2023-03-20T07:07:39;17.73;;;11.23;;
36191;SDS011;22233;42.708;23.360;2023-03-20T07:10:04;24.50;;;11.68;;
36191;SDS011;22233;42.708;23.360;2023-03-20T07:12:30;17.50;;;11.75;;
36191;SDS011;22233;42.708;23.360;2023-03-20T07:14:56;20.63;;;11.52;;
36191;SDS011;22233;42.708;23.360;2023-03-20T07:17:21;19.58;;;12.18;;
36191;SDS011;22233;42.708;23.360;2023-03-20T07:19:47;25.33;;;12.50;;
36191;SDS011;22233;42.708;23.360;2023-03-20T07:22:26;22.52;;;13.52;;
36191;SDS011;22233;42.708;23.360;2023-03-20T07:24:53;21.98;;;12.60;;
36191;SDS011;22233;42.708;23.360;2023-03-20T07:27:18;21.13;;;12.10;;
36191;SDS011;22233;42.708;23.360;2023-03-20T07:29:44;19.70;;;12.35;;
36191;SDS011;22233;42.708;23.360;2023-03-20T07:32:10;20.65;;;11.35;;
36191;SDS011;22233;42.708;23.360;2023-03-20T07:34:35;18.38;;;12.75;;
36191;SDS011;22233;42.708;23.360;2023-03-20T07:37:01;18.75;;;11.05;;
36191;SDS011;22233;42.708;23.360;2023-03-20T07:39:26;18.08;;;11.80;;
36191;SDS011;22233;42.708;23.360;2023-03-20T07:41:52;18.13;;;10.52;;
36191;SDS011;22233;42.708;23.360;2023-03-20T07:44:17;17.20;;;11.57;;
36191;SDS011;22233;42.708;23.360;2023-03-20T07:46:43;18.17;;;10.98;;
36191;SDS011;22233;42.708;23.360;2023-03-20T07:51:36;17.60;;;10.77;;
36191;SDS011;22233;42.708;23.360;2023-03-20T07:54:02;17.95;;;10.48;;
36191;SDS011;22233;42.708;23.360;2023-03-20T07:56:28;18.00;;;10.05;;
36191;SDS011;22233;42.708;23.360;2023-03-20T07:58:53;18.60;;;10.80;;
36191;SDS011;22233;42.708;23.360;2023-03-20T08:01:18;15.85;;;10.02;;
36191;SDS011;22233;42.708;23.360;2023-03-20T08:03:44;17.13;;;9.60;;
36191;SDS011;22233;42.708;23.360;2023-03-20T08:06:09;16.77;;;9.82;;
36191;SDS011;22233;42.708;23.360;2023-03-20T08:08:35;20.13;;;10.52;;
36191;SDS011;22233;42.708;23.360;2023-03-20T08:11:00;16.20;;;10.30;;
36191;SDS011;22233;42.708;23.360;2023-03-20T08:13:26;18.42;;;10.10;;
36191;SDS011;22233;42.708;23.360;2023-03-20T08:15:52;23.05;;;9.85;;
36191;SDS011;22233;42.708;23.360;2023-03-20T08:18:17;16.60;;;10.10;;
36191;SDS011;22233;42.708;23.360;2023-03-20T08:20:46;13.18;;;9.05;;
36191;SDS011;22233;42.708;23.360;2023-03-20T08:23:12;17.35;;;10.65;;
36191;SDS011;22233;42.708;23.360;2023-03-20T08:25:37;14.38;;;8.95;;
36191;SDS011;22233;42.708;23.360;2023-03-20T08:28:02;16.00;;;10.23;;
36191;SDS011;22233;42.708;23.360;2023-03-20T08:30:28;15.18;;;8.85;;
36191;SDS011;22233;42.708;23.360;2023-03-20T08:32:54;12.20;;;8.23;;
36191;SDS011;22233;42.708;23.360;2023-03-20T08:35:22;13.65;;;8.68;;
36191;SDS011;22233;42.708;23.360;2023-03-20T08:37:47;11.48;;;8.15;;
36191;SDS011;22233;42.708;23.360;2023-03-20T08:40:13;14.15;;;8.18;;
36191;SDS011;22233;42.708;23.360;2023-03-20T08:42:38;11.43;;;8.02;;
36191;SDS011;22233;42.708;23.360;2023-03-20T08:45:04;10.95;;;7.85;;
36191;SDS011;22233;42.708;23.360;2023-03-20T08:47:30;12.35;;;8.15;;
36191;SDS011;22233;42.708;23.360;2023-03-20T08:49:55;13.85;;;8.05;;
36191;SDS011;22233;42.708;23.360;2023-03-20T08:52:21;11.38;;;7.53;;
36191;SDS011;22233;42.708;23.360;2023-03-20T08:54:46;11.73;;;7.03;;
36191;SDS011;22233;42.708;23.360;2023-03-20T08:57:12;9.43;;;6.00;;
36191;SDS011;22233;42.708;23.360;2023-03-20T08:59:37;9.35;;;6.40;;
36191;SDS011;22233;42.708;23.360;2023-03-20T09:02:02;10.57;;;6.70;;
36191;SDS011;22233;42.708;23.360;2023-03-20T09:04:28;11.90;;;6.57;;
36191;SDS011;22233;42.708;23.360;2023-03-20T09:06:53;9.27;;;6.70;;
36191;SDS011;22233;42.708;23.360;2023-03-20T09:09:19;10.68;;;6.32;;
36191;SDS011;22233;42.708;23.360;2023-03-20T09:11:50;11.05;;;6.40;;
36191;SDS011;22233;42.708;23.360;2023-03-20T09:14:15;8.35;;;6.22;;
36191;SDS011;22233;42.708;23.360;2023-03-20T09:16:41;8.35;;;5.93;;
36191;SDS011;22233;42.708;23.360;2023-03-20T09:19:06;8.13;;;5.88;;
36191;SDS011;22233;42.708;23.360;2023-03-20T09:21:31;10.68;;;6.03;;
36191;SDS011;22233;42.708;23.360;2023-03-20T09:23:57;9.63;;;6.43;;
36191;SDS011;22233;42.708;23.360;2023-03-20T09:26:22;7.63;;;5.68;;
36191;SDS011;22233;42.708;23.360;2023-03-20T09:28:48;12.00;;;6.05;;
36191;SDS011;22233;42.708;23.360;2023-03-20T09:31:13;9.00;;;5.38;;
36191;SDS011;22233;42.708;23.360;2023-03-20T09:33:39;11.73;;;7.20;;
36191;SDS011;22233;42.708;23.360;2023-03-20T09:36:04;11.70;;;6.07;;
36191;SDS011;22233;42.708;23.360;2023-03-20T09:38:32;10.98;;;6.50;;
36191;SDS011;22233;42.708;23.360;2023-03-20T09:40:58;12.82;;;6.18;;
36191;SDS011;22233;42.708;23.360;2023-03-20T09:48:56;9.52;;;5.80;;
36191;SDS011;22233;42.708;23.360;2023-03-20T09:54:27;9.45;;;6.50;;
36191;SDS011;22233;42.708;23.360;2023-03-20T09:56:56;11.25;;;6.70;;
36191;SDS011;22233;42.708;23.360;2023-03-20T09:59:24;13.50;;;6.87;;
36191;SDS011;22233;42.708;23.360;2023-03-20T10:04:22;12.15;;;6.88;;
36191;SDS011;22233;42.708;23.360;2023-03-20T10:06:50;10.43;;;6.65;;
36191;SDS011;22233;42.708;23.360;2023-03-20T10:17:22;8.55;;;5.80;;
36191;SDS011;22233;42.708;23.360;2023-03-20T10:19:59;8.98;;;6.18;;
36191;SDS011;22233;42.708;23.360;2023-03-20T10:22:29;11.93;;;6.75;;
36191;SDS011;22233;42.708;23.360;2023-03-20T10:43:01;8.38;;;5.93;;
36191;SDS011;22233;42.708;23.360;2023-03-20T10:45:40;12.43;;;6.10;;
36191;SDS011;22233;42.708;23.360;2023-03-20T10:50:43;11.35;;;6.90;;
36191;SDS011;22233;42.708;23.360;2023-03-20T10:53:26;8.25;;;6.00;;
36191;SDS011;22233;42.708;23.360;2023-03-20T10:55:56;11.20;;;6.72;;
36191;SDS011;22233;42.708;23.360;2023-03-20T10:58:27;12.95;;;6.63;;
36191;SDS011;22233;42.708;23.360;2023-03-20T11:01:07;10.63;;;6.40;;
36191;SDS011;22233;42.708;23.360;2023-03-20T11:03:34;9.48;;;6.53;;
36191;SDS011;22233;42.708;23.360;2023-03-20T11:08:39;10.48;;;6.30;;
36191;SDS011;22233;42.708;23.360;2023-03-20T11:11:17;8.55;;;6.60;;
36191;SDS011;22233;42.708;23.360;2023-03-20T11:13:53;15.02;;;6.65;;
36191;SDS011;22233;42.708;23.360;2023-03-20T11:16:30;9.45;;;6.82;;
36191;SDS011;22233;42.708;23.360;2023-03-20T11:19:07;9.00;;;6.47;;
36191;SDS011;22233;42.708;23.360;2023-03-20T11:21:55;10.70;;;6.22;;
36191;SDS011;22233;42.708;23.360;2023-03-20T11:26:49;11.27;;;6.65;;
36191;SDS011;22233;42.708;23.360;2023-03-20T11:34:56;10.57;;;6.47;;
36191;SDS011;22233;42.708;23.360;2023-03-20T11:37:33;13.00;;;6.07;;
36191;SDS011;22233;42.708;23.360;2023-03-20T11:43:01;10.80;;;5.05;;
36191;SDS011;22233;42.708;23.360;2023-03-20T11:45:34;10.13;;;4.93;;
36191;SDS011;22233;42.708;23.360;2023-03-20T11:48:20;10.02;;;5.40;;
36191;SDS011;22233;42.708;23.360;2023-03-20T11:53:30;11.50;;;6.32;;
36191;SDS011;22233;42.708;23.360;2023-03-20T11:56:14;9.82;;;3.97;;
36191;SDS011;22233;42.708;23.360;2023-03-20T11:58:57;10.45;;;5.18;;
36191;SDS011;22233;42.708;23.360;2023-03-20T12:01:43;9.13;;;4.60;;
36191;SDS011;22233;42.708;23.360;2023-03-20T12:04:27;6.38;;;3.90;;
36191;SDS011;22233;42.708;23.360;2023-03-20T12:20:28;5.40;;;2.95;;
36191;SDS011;22233;42.708;23.360;2023-03-20T12:23:21;6.28;;;2.92;;
36191;SDS011;22233;42.708;23.360;2023-03-20T12:28:46;5.45;;;2.90;;
36191;SDS011;22233;42.708;23.360;2023-03-20T12:31:25;6.63;;;2.45;;
36191;SDS011;22233;42.708;23.360;2023-03-20T12:34:18;2.83;;;2.00;;
36191;SDS011;22233;42.708;23.360;2023-03-20T12:36:52;3.00;;;2.45;;
36191;SDS011;22233;42.708;23.360;2023-03-20T12:39:22;6.65;;;2.35;;
36191;SDS011;22233;42.708;23.360;2023-03-20T12:45:07;3.47;;;2.03;;
36191;SDS011;22233;42.708;23.360;2023-03-20T13:20:18;4.25;;;1.90;;
36191;SDS011;22233;42.708;23.360;2023-03-20T13:25:24;5.95;;;2.08;;
36191;SDS011;22233;42.708;23.360;2023-03-20T13:27:56;3.35;;;2.00;;
36191;SDS011;22233;42.708;23.360;2023-03-20T13:33:43;2.90;;;1.90;;
36191;SDS011;22233;42.708;23.360;2023-03-20T13:37:20;3.35;;;2.10;;
36191;SDS011;22233;42.708;23.360;2023-03-20T13:42:05;4.97;;;2.35;;
36191;SDS011;22233;42.708;23.360;2023-03-20T13:44:38;2.50;;;1.70;;
36191;SDS011;22233;42.708;23.360;2023-03-20T13:47:11;1.92;;;1.55;;
36191;SDS011;22233;42.708;23.360;2023-03-20T13:52:21;2.08;;;1.40;;
36191;SDS011;22233;42.708;23.360;2023-03-20T14:05:52;4.50;;;2.13;;
36191;SDS011;22233;42.708;23.360;2023-03-20T14:13:34;6.78;;;2.92;;
36191;SDS011;22233;42.708;23.360;2023-03-20T14:16:06;4.55;;;2.70;;
36191;SDS011;22233;42.708;23.360;2023-03-20T14:18:33;2.53;;;1.90;;
36191;SDS011;22233;42.708;23.360;2023-03-20T14:21:01;3.20;;;1.88;;
36191;SDS011;22233;42.708;23.360;2023-03-20T14:23:34;3.90;;;2.10;;
36191;SDS011;22233;42.708;23.360;2023-03-20T14:26:08;4.13;;;1.92;;
36191;SDS011;22233;42.708;23.360;2023-03-20T14:28:58;2.85;;;1.70;;
36191;SDS011;22233;42.708;23.360;2023-03-20T14:31:43;2.67;;;1.67;;
36191;SDS011;22233;42.708;23.360;2023-03-20T14:34:20;3.13;;;2.75;;
36191;SDS011;22233;42.708;23.360;2023-03-20T14:47:28;3.78;;;1.83;;
36191;SDS011;22233;42.708;23.360;2023-03-20T14:50:12;2.67;;;1.75;;
36191;SDS011;22233;42.708;23.360;2023-03-20T14:58:52;4.82;;;2.00;;
36191;SDS011;22233;42.708;23.360;2023-03-20T15:03:46;4.75;;;2.58;;
36191;SDS011;22233;42.708;23.360;2023-03-20T15:06:16;3.80;;;2.30;;
36191;SDS011;22233;42.708;23.360;2023-03-20T15:08:51;5.45;;;1.88;;
36191;SDS011;22233;42.708;23.360;2023-03-20T15:11:19;8.30;;;2.67;;
36191;SDS011;22233;42.708;23.360;2023-03-20T15:13:46;7.57;;;2.63;;
36191;SDS011;22233;42.708;23.360;2023-03-20T15:16:13;5.85;;;2.50;;
36191;SDS011;22233;42.708;23.360;2023-03-20T15:18:46;4.93;;;2.65;;
36191;SDS011;22233;42.708;23.360;2023-03-20T15:21:17;6.15;;;3.05;;
36191;SDS011;22233;42.708;23.360;2023-03-20T15:23:45;6.78;;;3.45;;
36191;SDS011;22233;42.708;23.360;2023-03-20T15:26:15;4.40;;;2.65;;
36191;SDS011;22233;42.708;23.360;2023-03-20T15:28:43;5.95;;;4.30;;
36191;SDS011;22233;42.708;23.360;2023-03-20T15:31:18;8.15;;;4.68;;
36191;SDS011;22233;42.708;23.360;2023-03-20T15:33:48;10.45;;;3.90;;
36191;SDS011;22233;42.708;23.360;2023-03-20T15:36:15;6.38;;;3.13;;
36191;SDS011;22233;42.708;23.360;2023-03-20T15:38:43;8.35;;;4.28;;
36191;SDS011;22233;42.708;23.360;2023-03-20T15:41:23;14.02;;;3.92;;
36191;SDS011;22233;42.708;23.360;2023-03-20T15:44:01;7.63;;;3.22;;
36191;SDS011;22233;42.708;23.360;2023-03-20T15:46:39;10.98;;;4.10;;
36191;SDS011;22233;42.708;23.360;2023-03-20T15:49:04;11.73;;;5.40;;
36191;SDS011;22233;42.708;23.360;2023-03-20T15:51:30;11.82;;;4.90;;
36191;SDS011;22233;42.708;23.360;2023-03-20T15:53:58;20.67;;;5.20;;
36191;SDS011;22233;42.708;23.360;2023-03-20T15:56:24;9.25;;;4.60;;
36191;SDS011;22233;42.708;23.360;2023-03-20T15:58:51;7.95;;;4.00;;
36191;SDS011;22233;42.708;23.360;2023-03-20T16:01:23;8.82;;;5.07;;
36191;SDS011;22233;42.708;23.360;2023-03-20T16:03:50;8.10;;;3.08;;
36191;SDS011;22233;42.708;23.360;2023-03-20T16:06:18;6.63;;;3.22;;
36191;SDS011;22233;42.708;23.360;2023-03-20T16:08:45;6.85;;;3.22;;
36191;SDS011;22233;42.708;23.360;2023-03-20T16:11:21;9.00;;;2.75;;
36191;SDS011;22233;42.708;23.360;2023-03-20T16:13:46;8.52;;;3.05;;
36191;SDS011;22233;42.708;23.360;2023-03-20T16:16:17;6.00;;;2.75;;
36191;SDS011;22233;42.708;23.360;2023-03-20T16:18:45;5.40;;;2.80;;
36191;SDS011;22233;42.708;23.360;2023-03-20T16:21:14;6.25;;;2.50;;
36191;SDS011;22233;42.708;23.360;2023-03-20T16:23:47;5.97;;;2.70;;
36191;SDS011;22233;42.708;23.360;2023-03-20T16:26:20;3.75;;;2.40;;
36191;SDS011;22233;42.708;23.360;2023-03-20T16:28:51;10.82;;;4.50;;
36191;SDS011;22233;42.708;23.360;2023-03-20T16:31:24;12.00;;;4.45;;
36191;SDS011;22233;42.708;23.360;2023-03-20T16:33:58;6.82;;;3.50;;
36191;SDS011;22233;42.708;23.360;2023-03-20T16:36:33;6.20;;;2.63;;
36191;SDS011;22233;42.708;23.360;2023-03-20T16:41:32;6.13;;;3.78;;
36191;SDS011;22233;42.708;23.360;2023-03-20T16:44:12;11.77;;;6.35;;
36191;SDS011;22233;42.708;23.360;2023-03-20T16:52:03;16.67;;;8.17;;
36191;SDS011;22233;42.708;23.360;2023-03-20T16:54:36;18.08;;;8.52;;
36191;SDS011;22233;42.708;23.360;2023-03-20T16:57:02;16.25;;;8.50;;
36191;SDS011;22233;42.708;23.360;2023-03-20T16:59:32;16.63;;;8.18;;
36191;SDS011;22233;42.708;23.360;2023-03-20T17:02:03;20.48;;;9.02;;
36191;SDS011;22233;42.708;23.360;2023-03-20T17:04:37;15.73;;;9.02;;
36191;SDS011;22233;42.708;23.360;2023-03-20T17:07:13;16.33;;;9.50;;
36191;SDS011;22233;42.708;23.360;2023-03-20T17:12:48;15.07;;;8.93;;
36191;SDS011;22233;42.708;23.360;2023-03-20T17:15:20;14.25;;;8.23;;
36191;SDS011;22233;42.708;23.360;2023-03-20T17:17:47;13.63;;;8.15;;
36191;SDS011;22233;42.708;23.360;2023-03-20T17:20:18;12.85;;;7.03;;
36191;SDS011;22233;42.708;23.360;2023-03-20T17:22:45;14.02;;;7.22;;
36191;SDS011;22233;42.708;23.360;2023-03-20T17:25:10;14.40;;;8.20;;
36191;SDS011;22233;42.708;23.360;2023-03-20T17:27:36;10.43;;;6.13;;
36191;SDS011;22233;42.708;23.360;2023-03-20T17:30:03;11.10;;;6.13;;
36191;SDS011;22233;42.708;23.360;2023-03-20T17:32:30;11.25;;;6.13;;
36191;SDS011;22233;42.708;23.360;2023-03-20T17:34:57;15.10;;;7.13;;
36191;SDS011;22233;42.708;23.360;2023-03-20T17:37:23;10.57;;;5.97;;
36191;SDS011;22233;42.708;23.360;2023-03-20T17:39:51;11.27;;;5.63;;
36191;SDS011;22233;42.708;23.360;2023-03-20T17:42:22;11.18;;;5.68;;
36191;SDS011;22233;42.708;23.360;2023-03-20T17:44:50;10.77;;;6.18;;
36191;SDS011;22233;42.708;23.360;2023-03-20T17:47:17;8.07;;;5.28;;
36191;SDS011;22233;42.708;23.360;2023-03-20T17:49:44;10.15;;;5.18;;
36191;SDS011;22233;42.708;23.360;2023-03-20T17:52:14;9.02;;;5.22;;
36191;SDS011;22233;42.708;23.360;2023-03-20T17:54:41;10.07;;;5.10;;
36191;SDS011;22233;42.708;23.360;2023-03-20T18:00:26;7.90;;;4.55;;